Graytown, Ohio
Current Conditions -  °F | °C
As of 12:53 PM on Saturday 25 Oct 2014 (Local Time) from KTDZ Reporting Station
Few Clouds Few Clouds  
Wind Chill: 64°   Ceiling: Unl
Heat Index: 64°   Visibility: 9mi
Dew Point: 53°   Wind: 17mph
Humidity: 67%   Direction: 260°W
Pressure: 29.84"   Gusts: 23mph
Location:  41.54°N, 83.26°W
Report Text: KTDZ 251653Z AUTO 26015G20KT 9SM FEW021 18/12 A2984 RMK AO2 SLP104 T01780117 TSNO
Loading
Personal Weather Stations






























Interactive Weather Map
Tropical Storm Tracking
New forecast layout! Learn more

10-Day Weather Forecast

Advertisements
Track Severe Weather on mobile